Terminal Aerodrome Forecast
Issued by NWS

Home | Current Version | Previous Version | Text Only | Print | Product List | Glossary On
Versions: 1 2 3 4 5 6 7 8 9 10 11 12 13 14 15 16 17 18 19 20 21 22 23 24 25 26 27 28 29 30 31 32 33 34 35 36
000
FTUS43 KIND 191120
TAFLAF
TAF
KLAF 191120Z 1912/2012 35011KT P6SM VCSH BKN016 OVC025
     FM192100 01018G28KT P6SM VCSH OVC018
     FM200000 01018KT P6SM VCSH OVC021
     FM200400 01017G25KT P6SM VCSH BKN040
     FM200900 36019KT P6SM OVC035
      AMD LTD TO CLD VIS AND WIND TIL 191300=

USA.gov is the U.S. government's official web portal to all federal, state and local government web resources and services.